Time;durP1;ratioP1;P1;durP2;ratioP2;P2;SDS_P1;SDS_P2;PMS_P1;PMS_P2;Temp;Humidity;BMP_temperature;BMP_pressure;BME280_temperature;BME280_humidity;BME280_pressure;Samples;Min_cycle;Max_cycle;Signal;HPM_P1;HPM_P2
2023/03/28 00:01:54;;;;;;;5.07;2.60;;;;;;;;;;5110879;28;20292;-74
2023/03/28 00:04:22;;;;;;;5.93;2.63;;;;;;;;;;5107829;28;20252;-74
2023/03/28 00:06:49;;;;;;;4.93;2.50;;;;;;;;;;5094380;28;20233;-73
2023/03/28 00:09:17;;;;;;;6.13;2.50;;;;;;;;;;5106269;28;20233;-74
2023/03/28 00:11:44;;;;;;;3.90;1.90;;;;;;;;;;5113587;28;20210;-74
2023/03/28 00:14:14;;;;;;;3.53;2.37;;;;;;;;;;5113669;28;20227;-73
2023/03/28 00:16:44;;;;;;;4.80;2.60;;;;;;;;;;5114470;28;20332;-74
2023/03/28 00:19:13;;;;;;;3.80;2.20;;;;;;;;;;5131388;27;20764;-74
2023/03/28 00:21:41;;;;;;;5.10;2.30;;;;;;;;;;5134380;27;20197;-75
2023/03/28 00:24:12;;;;;;;5.10;2.13;;;;;;;;;;5134389;27;20203;-74
2023/03/28 00:26:40;;;;;;;5.93;2.40;;;;;;;;;;5127865;27;20593;-74
2023/03/28 00:29:09;;;;;;;6.93;2.40;;;;;;;;;;5114168;28;20283;-73
2023/03/28 00:31:39;;;;;;;4.60;2.30;;;;;;;;;;5113270;28;20228;-74
2023/03/28 00:34:06;;;;;;;4.23;1.93;;;;;;;;;;5113481;27;20674;-73
2023/03/28 00:36:33;;;;;;;5.83;2.30;;;;;;;;;;5114134;28;20201;-74
2023/03/28 00:39:04;;;;;;;3.33;1.90;;;;;;;;;;5113581;28;20288;-74
2023/03/28 00:41:31;;;;;;;5.40;2.40;;;;;;;;;;5113520;28;20201;-74
2023/03/28 00:43:59;;;;;;;3.73;2.03;;;;;;;;;;5113234;28;20228;-74
2023/03/28 00:46:29;;;;;;;5.03;2.10;;;;;;;;;;5112976;28;20247;-73
2023/03/28 00:49:00;;;;;;;5.23;2.33;;;;;;;;;;5113224;28;20196;-73
2023/03/28 00:51:30;;;;;;;6.67;2.10;;;;;;;;;;5113842;27;20237;-74
2023/03/28 00:53:58;;;;;;;3.30;2.00;;;;;;;;;;5113251;28;20249;-74
2023/03/28 00:56:28;;;;;;;6.00;2.07;;;;;;;;;;5113218;28;20221;-73
2023/03/28 00:58:56;;;;;;;4.00;2.00;;;;;;;;;;5113381;28;20228;-74
2023/03/28 01:01:24;;;;;;;4.80;2.27;;;;;;;;;;5112893;28;20291;-74
2023/03/28 01:03:55;;;;;;;3.47;2.10;;;;;;;;;;5112400;28;20748;-73
2023/03/28 01:06:25;;;;;;;3.40;1.80;;;;;;;;;;5112971;28;20997;-74
2023/03/28 01:08:52;;;;;;;5.83;2.20;;;;;;;;;;5103436;28;20293;-74
2023/03/28 01:11:20;;;;;;;7.33;2.50;;;;;;;;;;5092196;28;20740;-75
2023/03/28 01:13:49;;;;;;;4.27;2.13;;;;;;;;;;5111916;28;20232;-73
2023/03/28 01:16:17;;;;;;;4.27;2.23;;;;;;;;;;5111632;28;20227;-72
2023/03/28 01:18:45;;;;;;;2.67;2.00;;;;;;;;;;5112640;28;20263;-74
2023/03/28 01:21:30;;;;;;;4.63;2.30;;;;;;;;;;5104279;28;20249;-74
2023/03/28 01:24:18;;;;;;;4.30;2.17;;;;;;;;;;5105048;28;20283;-73
2023/03/28 01:26:50;;;;;;;4.07;2.30;;;;;;;;;;5110905;28;20296;-73
2023/03/28 01:29:24;;;;;;;3.60;2.10;;;;;;;;;;5111331;28;20201;-74
2023/03/28 01:32:10;;;;;;;2.87;2.07;;;;;;;;;;5112275;28;20224;-74
2023/03/28 01:34:46;;;;;;;4.80;2.10;;;;;;;;;;5097767;28;20212;-74
2023/03/28 01:37:24;;;;;;;3.80;2.00;;;;;;;;;;5101182;28;20286;-74
2023/03/28 01:40:05;;;;;;;6.17;2.23;;;;;;;;;;5112003;28;20201;-73
2023/03/28 01:42:36;;;;;;;4.20;2.23;;;;;;;;;;5112537;27;20288;-73
2023/03/28 01:45:07;;;;;;;5.03;1.90;;;;;;;;;;5112240;28;20204;-74
2023/03/28 01:47:37;;;;;;;3.17;2.07;;;;;;;;;;5112496;28;20266;-73
2023/03/28 01:50:10;;;;;;;4.30;1.80;;;;;;;;;;5112210;28;20223;-73
2023/03/28 01:52:41;;;;;;;4.47;2.33;;;;;;;;;;5112183;28;20197;-73
2023/03/28 01:55:10;;;;;;;5.47;2.00;;;;;;;;;;5111674;28;20284;-74
2023/03/28 01:57:41;;;;;;;4.20;2.20;;;;;;;;;;5112431;28;20290;-74
2023/03/28 02:00:12;;;;;;;5.53;2.23;;;;;;;;;;5120637;27;20253;-74
2023/03/28 02:02:41;;;;;;;4.50;1.93;;;;;;;;;;5132668;27;20229;-72
2023/03/28 02:05:10;;;;;;;3.57;1.80;;;;;;;;;;5132474;27;20618;-74
2023/03/28 02:07:40;;;;;;;3.27;2.00;;;;;;;;;;5132352;27;20282;-73
2023/03/28 02:10:09;;;;;;;5.27;2.27;;;;;;;;;;5132357;27;20238;-73
2023/03/28 02:12:38;;;;;;;3.33;1.70;;;;;;;;;;5127396;27;20224;-74
2023/03/28 02:15:06;;;;;;;3.40;1.87;;;;;;;;;;5111519;28;20632;-73
2023/03/28 02:17:39;;;;;;;2.87;2.00;;;;;;;;;;5112282;28;20236;-74
2023/03/28 02:20:09;;;;;;;6.47;1.90;;;;;;;;;;5112129;28;20250;-73
2023/03/28 02:22:39;;;;;;;3.10;1.83;;;;;;;;;;5111320;28;20661;-74
2023/03/28 02:25:09;;;;;;;3.50;1.80;;;;;;;;;;5111434;28;20654;-74
2023/03/28 02:27:38;;;;;;;3.67;1.50;;;;;;;;;;5111345;28;20593;-75
2023/03/28 02:30:06;;;;;;;4.00;1.80;;;;;;;;;;5111543;28;20273;-75
2023/03/28 02:32:34;;;;;;;3.13;1.77;;;;;;;;;;5111514;28;20207;-75
2023/03/28 02:35:04;;;;;;;5.47;2.10;;;;;;;;;;5123061;27;20298;-74
2023/03/28 02:37:36;;;;;;;4.93;2.10;;;;;;;;;;5111302;28;20215;-75
2023/03/28 02:40:15;;;;;;;5.00;1.87;;;;;;;;;;5096175;28;20294;-75
2023/03/28 02:42:51;;;;;;;4.20;1.97;;;;;;;;;;5109157;28;20240;-75
2023/03/28 02:45:27;;;;;;;3.47;1.93;;;;;;;;;;5091562;28;20293;-76
2023/03/28 02:48:00;;;;;;;2.93;1.70;;;;;;;;;;5109715;28;20816;-75
2023/03/28 02:50:29;;;;;;;4.77;2.00;;;;;;;;;;5114754;28;20249;-75
2023/03/28 02:53:01;;;;;;;4.57;1.93;;;;;;;;;;5131569;28;20234;-75
2023/03/28 02:55:34;;;;;;;3.30;1.90;;;;;;;;;;5112395;28;20288;-75
2023/03/28 02:58:09;;;;;;;4.33;2.17;;;;;;;;;;5111281;28;20289;-76
2023/03/28 03:00:36;;;;;;;3.43;1.93;;;;;;;;;;5111034;28;20567;-74
2023/03/28 03:03:04;;;;;;;5.07;2.07;;;;;;;;;;5111087;28;20203;-75
2023/03/28 03:05:31;;;;;;;3.87;1.47;;;;;;;;;;5110933;28;20723;-74
2023/03/28 03:07:58;;;;;;;5.40;1.90;;;;;;;;;;5119007;28;20321;-75
2023/03/28 03:10:25;;;;;;;4.67;1.93;;;;;;;;;;5131536;28;20196;-75
2023/03/28 03:12:54;;;;;;;4.93;2.03;;;;;;;;;;5124489;28;20231;-74
2023/03/28 03:15:21;;;;;;;4.23;1.80;;;;;;;;;;5110333;28;20290;-75
2023/03/28 03:17:49;;;;;;;3.07;1.70;;;;;;;;;;5109924;28;20202;-75
2023/03/28 03:20:17;;;;;;;4.40;1.80;;;;;;;;;;5110623;28;20232;-75
2023/03/28 03:22:44;;;;;;;2.47;1.67;;;;;;;;;;5110310;28;20195;-75
2023/03/28 03:25:12;;;;;;;5.63;1.90;;;;;;;;;;5110389;28;20231;-75
2023/03/28 03:27:39;;;;;;;4.50;1.90;;;;;;;;;;5109967;28;20317;-75
2023/03/28 03:30:10;;;;;;;4.87;2.00;;;;;;;;;;5110986;28;20294;-75
2023/03/28 03:32:38;;;;;;;3.90;2.17;;;;;;;;;;5090636;28;20224;-75
2023/03/28 03:35:05;;;;;;;4.60;2.10;;;;;;;;;;5094657;28;20222;-75
2023/03/28 03:37:32;;;;;;;3.90;2.00;;;;;;;;;;5113205;28;20740;-74
2023/03/28 03:40:00;;;;;;;4.40;2.13;;;;;;;;;;5113958;28;20293;-75
2023/03/28 03:42:27;;;;;;;5.67;2.43;;;;;;;;;;5103398;28;20291;-75
2023/03/28 03:44:55;;;;;;;5.40;2.00;;;;;;;;;;5095064;28;20208;-73
2023/03/28 03:47:23;;;;;;;2.63;1.90;;;;;;;;;;5111986;28;20233;-75
2023/03/28 03:49:50;;;;;;;3.67;1.80;;;;;;;;;;5112988;28;20232;-75
2023/03/28 03:52:18;;;;;;;5.40;2.20;;;;;;;;;;5114351;28;20646;-75
2023/03/28 03:54:45;;;;;;;3.37;2.00;;;;;;;;;;5114350;28;20303;-74
2023/03/28 03:57:12;;;;;;;5.97;2.17;;;;;;;;;;5104031;28;20531;-76
2023/03/28 03:59:39;;;;;;;2.57;1.90;;;;;;;;;;5094687;28;20241;-74
2023/03/28 04:02:06;;;;;;;5.70;2.20;;;;;;;;;;5109490;28;20236;-75
2023/03/28 04:04:35;;;;;;;3.10;1.83;;;;;;;;;;5094251;28;20228;-75
2023/03/28 04:07:03;;;;;;;3.03;1.80;;;;;;;;;;5109526;28;20226;-75
2023/03/28 04:09:30;;;;;;;3.87;1.87;;;;;;;;;;5112493;28;20252;-74
2023/03/28 04:11:57;;;;;;;3.00;1.53;;;;;;;;;;5099723;28;20294;-74
2023/03/28 04:14:24;;;;;;;3.00;1.47;;;;;;;;;;5112748;28;20224;-75
2023/03/28 04:16:52;;;;;;;4.97;1.37;;;;;;;;;;5113981;28;20246;-74
2023/03/28 04:19:20;;;;;;;4.97;1.60;;;;;;;;;;5113872;28;20293;-75
2023/03/28 04:21:51;;;;;;;4.83;1.67;;;;;;;;;;5099966;28;20243;-74
2023/03/28 04:24:23;;;;;;;2.73;1.50;;;;;;;;;;5110086;28;20208;-74
2023/03/28 04:26:54;;;;;;;3.87;1.43;;;;;;;;;;5108466;28;20251;-75
2023/03/28 04:29:24;;;;;;;5.80;1.57;;;;;;;;;;5103167;28;20311;-75
2023/03/28 04:31:54;;;;;;;3.07;1.40;;;;;;;;;;5113795;28;20196;-74
2023/03/28 04:34:24;;;;;;;5.13;1.80;;;;;;;;;;5131027;27;20207;-75
2023/03/28 04:36:55;;;;;;;2.30;1.40;;;;;;;;;;5114306;28;20220;-75
2023/03/28 04:39:22;;;;;;;4.23;1.60;;;;;;;;;;5113239;28;20207;-75
2023/03/28 04:41:54;;;;;;;5.03;1.53;;;;;;;;;;5113257;28;20287;-75
2023/03/28 04:44:21;;;;;;;3.83;2.00;;;;;;;;;;5113430;28;20201;-75
2023/03/28 04:46:49;;;;;;;4.37;1.70;;;;;;;;;;5113073;28;20249;-75
2023/03/28 04:49:17;;;;;;;2.80;1.70;;;;;;;;;;5114832;27;20331;-74
2023/03/28 04:51:44;;;;;;;2.73;1.23;;;;;;;;;;5134207;27;20290;-75
2023/03/28 04:54:13;;;;;;;3.40;1.73;;;;;;;;;;5133765;27;20208;-74
2023/03/28 04:56:40;;;;;;;2.67;1.43;;;;;;;;;;5134094;27;20204;-74
2023/03/28 04:59:07;;;;;;;3.97;1.60;;;;;;;;;;5133878;27;20233;-75
2023/03/28 05:01:35;;;;;;;3.80;1.50;;;;;;;;;;5133790;27;20778;-75
2023/03/28 05:04:02;;;;;;;2.50;1.53;;;;;;;;;;5133691;27;20228;-75
2023/03/28 05:06:30;;;;;;;2.57;1.60;;;;;;;;;;5120113;27;20211;-75
2023/03/28 05:08:57;;;;;;;3.90;1.90;;;;;;;;;;5113017;28;20223;-75
2023/03/28 05:11:26;;;;;;;3.13;1.47;;;;;;;;;;5112677;28;20291;-74
2023/03/28 05:13:53;;;;;;;5.03;1.67;;;;;;;;;;5112562;28;20205;-74
2023/03/28 05:16:20;;;;;;;4.80;1.77;;;;;;;;;;5114737;28;20224;-75
2023/03/28 05:18:48;;;;;;;4.77;1.97;;;;;;;;;;5113655;28;20286;-74
2023/03/28 05:21:16;;;;;;;3.10;1.70;;;;;;;;;;5112807;28;20282;-75
2023/03/28 05:23:43;;;;;;;3.73;1.80;;;;;;;;;;5113207;28;20283;-75
2023/03/28 05:26:10;;;;;;;3.77;1.90;;;;;;;;;;5112797;28;20383;-74
2023/03/28 05:28:39;;;;;;;4.60;1.70;;;;;;;;;;5112461;28;20777;-75
2023/03/28 05:31:07;;;;;;;4.07;1.67;;;;;;;;;;5111531;28;20228;-74
2023/03/28 05:33:34;;;;;;;2.83;1.60;;;;;;;;;;5109125;28;20204;-75
2023/03/28 05:36:01;;;;;;;4.63;1.70;;;;;;;;;;5092448;28;20297;-74
2023/03/28 05:38:30;;;;;;;3.90;1.70;;;;;;;;;;5108713;28;20226;-75
2023/03/28 05:40:57;;;;;;;3.50;1.80;;;;;;;;;;5110649;28;20280;-74
2023/03/28 05:43:25;;;;;;;2.43;1.60;;;;;;;;;;5111419;28;20648;-74
2023/03/28 05:45:53;;;;;;;3.57;1.80;;;;;;;;;;5099034;28;20673;-75
2023/03/28 05:48:20;;;;;;;6.03;2.03;;;;;;;;;;5103405;28;20250;-75
2023/03/28 05:50:49;;;;;;;4.23;1.97;;;;;;;;;;5103799;28;20771;-75
2023/03/28 05:53:16;;;;;;;3.73;1.70;;;;;;;;;;5110422;28;20243;-75
2023/03/28 05:55:43;;;;;;;3.83;2.00;;;;;;;;;;5105684;28;20771;-76
2023/03/28 05:58:10;;;;;;;4.03;2.10;;;;;;;;;;5110139;27;20635;-76
2023/03/28 06:00:38;;;;;;;4.17;1.80;;;;;;;;;;5111351;27;20277;-74
2023/03/28 06:03:08;;;;;;;5.57;1.97;;;;;;;;;;5111915;27;20220;-75
2023/03/28 06:05:35;;;;;;;2.80;1.80;;;;;;;;;;5121019;27;20260;-75
2023/03/28 06:08:02;;;;;;;3.93;1.87;;;;;;;;;;5110386;28;20320;-75
2023/03/28 06:10:30;;;;;;;3.97;1.63;;;;;;;;;;5110285;28;20207;-75
2023/03/28 06:12:57;;;;;;;6.23;1.90;;;;;;;;;;5108550;28;20231;-76
2023/03/28 06:15:24;;;;;;;4.43;2.03;;;;;;;;;;5110862;28;20232;-75
2023/03/28 06:17:51;;;;;;;5.37;1.90;;;;;;;;;;5114930;27;20252;-75
2023/03/28 06:20:20;;;;;;;3.70;1.90;;;;;;;;;;5122568;27;20295;-75
2023/03/28 06:22:47;;;;;;;2.40;1.80;;;;;;;;;;5110721;28;20371;-75
2023/03/28 06:25:14;;;;;;;4.60;2.03;;;;;;;;;;5111075;28;20192;-75
2023/03/28 06:27:41;;;;;;;3.47;1.90;;;;;;;;;;5111462;28;20280;-75
2023/03/28 06:30:09;;;;;;;3.70;2.00;;;;;;;;;;5110861;28;20307;-75
2023/03/28 06:32:36;;;;;;;4.03;2.20;;;;;;;;;;5111770;28;20200;-74
2023/03/28 06:35:04;;;;;;;2.93;2.00;;;;;;;;;;5111443;28;20668;-75
2023/03/28 06:37:32;;;;;;;3.80;2.00;;;;;;;;;;5110458;28;20295;-75
2023/03/28 06:39:59;;;;;;;4.93;2.30;;;;;;;;;;5111400;28;20234;-75
2023/03/28 06:42:27;;;;;;;4.90;2.33;;;;;;;;;;5110813;28;20190;-74
2023/03/28 06:44:54;;;;;;;5.70;2.43;;;;;;;;;;5110309;28;20192;-75
2023/03/28 06:47:22;;;;;;;3.10;1.77;;;;;;;;;;5110526;28;20318;-75
2023/03/28 06:49:49;;;;;;;5.57;2.10;;;;;;;;;;5125013;27;20230;-74
2023/03/28 06:52:16;;;;;;;4.77;2.27;;;;;;;;;;5132079;27;20282;-75
2023/03/28 06:54:45;;;;;;;4.03;2.30;;;;;;;;;;5110798;28;20193;-74
2023/03/28 06:57:12;;;;;;;5.47;2.50;;;;;;;;;;5110677;28;20286;-75
2023/03/28 06:59:39;;;;;;;4.57;2.63;;;;;;;;;;5110100;28;20198;-74
2023/03/28 07:02:07;;;;;;;6.57;2.40;;;;;;;;;;5111312;28;20196;-75
2023/03/28 07:04:34;;;;;;;4.10;2.23;;;;;;;;;;5110774;28;20197;-75
2023/03/28 07:07:01;;;;;;;4.87;2.33;;;;;;;;;;5127246;27;20204;-75
2023/03/28 07:09:29;;;;;;;4.37;2.27;;;;;;;;;;5134998;27;20258;-75
2023/03/28 07:11:57;;;;;;;3.83;2.17;;;;;;;;;;5128160;27;20196;-74
2023/03/28 07:14:25;;;;;;;4.37;2.07;;;;;;;;;;5115035;28;20239;-74
2023/03/28 07:16:52;;;;;;;4.57;2.30;;;;;;;;;;5114963;28;20232;-76
2023/03/28 07:19:19;;;;;;;3.57;1.73;;;;;;;;;;5114512;28;20200;-74
2023/03/28 07:21:46;;;;;;;5.00;1.80;;;;;;;;;;5114637;28;20235;-76
2023/03/28 07:24:13;;;;;;;3.97;2.20;;;;;;;;;;5116447;27;20288;-75
2023/03/28 07:26:41;;;;;;;6.00;1.87;;;;;;;;;;5114851;28;20219;-73
2023/03/28 07:29:09;;;;;;;4.07;2.00;;;;;;;;;;5114687;28;20311;-74
2023/03/28 07:31:37;;;;;;;8.57;2.20;;;;;;;;;;5115017;28;20613;-76
2023/03/28 07:34:04;;;;;;;4.63;2.00;;;;;;;;;;5113814;28;20288;-74
2023/03/28 07:36:31;;;;;;;4.10;2.07;;;;;;;;;;5114589;28;20288;-73
2023/03/28 07:38:58;;;;;;;5.20;2.30;;;;;;;;;;5115274;28;20283;-74
2023/03/28 07:41:26;;;;;;;5.07;2.60;;;;;;;;;;5134253;27;20641;-75
2023/03/28 07:43:53;;;;;;;6.73;2.23;;;;;;;;;;5135174;27;20617;-76
2023/03/28 07:46:22;;;;;;;5.17;2.40;;;;;;;;;;5135181;27;20307;-75
2023/03/28 07:48:51;;;;;;;4.17;2.30;;;;;;;;;;5134622;27;20225;-73
2023/03/28 07:51:19;;;;;;;4.37;2.30;;;;;;;;;;5135165;27;20625;-73
2023/03/28 07:53:46;;;;;;;3.10;2.03;;;;;;;;;;5131383;27;20219;-75
2023/03/28 07:56:13;;;;;;;4.93;1.80;;;;;;;;;;5115871;27;20273;-73
2023/03/28 07:58:41;;;;;;;4.87;2.00;;;;;;;;;;5134528;27;20196;-74
2023/03/28 08:01:08;;;;;;;4.50;2.03;;;;;;;;;;5116431;27;20321;-74
2023/03/28 08:03:37;;;;;;;4.43;1.87;;;;;;;;;;5100166;28;20593;-74
2023/03/28 08:06:04;;;;;;;4.73;1.77;;;;;;;;;;5102931;28;20360;-73
2023/03/28 08:08:32;;;;;;;4.13;2.10;;;;;;;;;;5093393;28;20297;-73
2023/03/28 08:11:00;;;;;;;3.60;1.60;;;;;;;;;;5110243;28;20360;-74
2023/03/28 08:13:27;;;;;;;5.70;2.57;;;;;;;;;;5114206;27;20693;-74
2023/03/28 08:15:55;;;;;;;4.27;1.87;;;;;;;;;;5113923;28;20229;-73
2023/03/28 08:18:23;;;;;;;3.73;1.90;;;;;;;;;;5113920;28;20296;-73
2023/03/28 08:20:57;;;;;;;4.23;1.97;;;;;;;;;;5113669;28;20201;-74
2023/03/28 08:23:26;;;;;;;4.00;2.13;;;;;;;;;;5113896;28;20292;-74
2023/03/28 08:25:54;;;;;;;2.70;1.70;;;;;;;;;;5113588;28;20197;-74
2023/03/28 08:28:21;;;;;;;4.87;1.50;;;;;;;;;;5113578;28;20197;-74
2023/03/28 08:30:48;;;;;;;3.77;1.53;;;;;;;;;;5114300;27;20328;-74
2023/03/28 08:33:15;;;;;;;3.20;1.60;;;;;;;;;;5113082;28;20197;-74
2023/03/28 08:35:42;;;;;;;5.63;1.67;;;;;;;;;;5113565;28;20244;-74
2023/03/28 08:38:12;;;;;;;2.90;1.70;;;;;;;;;;5113564;28;20228;-73
2023/03/28 08:40:40;;;;;;;3.57;1.60;;;;;;;;;;5113454;28;20670;-74
2023/03/28 08:43:16;;;;;;;3.07;1.63;;;;;;;;;;5113485;28;20284;-73
2023/03/28 08:45:50;;;;;;;4.07;1.63;;;;;;;;;;5095770;28;20284;-74
2023/03/28 08:48:22;;;;;;;5.23;1.80;;;;;;;;;;5114038;27;20245;-74
2023/03/28 08:50:52;;;;;;;7.17;1.70;;;;;;;;;;5113245;28;20260;-74
2023/03/28 08:53:25;;;;;;;4.47;1.80;;;;;;;;;;5113595;28;20243;-74
2023/03/28 08:55:53;;;;;;;3.67;2.00;;;;;;;;;;5113102;28;20194;-74
2023/03/28 08:58:22;;;;;;;4.40;1.67;;;;;;;;;;5113529;28;20221;-74
2023/03/28 09:00:50;;;;;;;3.80;1.73;;;;;;;;;;5112798;28;20216;-74
2023/03/28 09:03:19;;;;;;;3.43;1.73;;;;;;;;;;5111237;28;20218;-73
2023/03/28 09:05:48;;;;;;;4.10;2.10;;;;;;;;;;5108507;28;20206;-74
2023/03/28 09:08:27;;;;;;;2.73;1.60;;;;;;;;;;5113059;28;20289;-74
2023/03/28 09:10:57;;;;;;;3.07;1.50;;;;;;;;;;5107018;28;20235;-74
2023/03/28 09:13:28;;;;;;;3.47;1.90;;;;;;;;;;5110410;28;20222;-74
2023/03/28 09:16:09;;;;;;;4.03;1.73;;;;;;;;;;5108726;28;20285;-74
2023/03/28 09:18:50;;;;;;;5.00;2.10;;;;;;;;;;5110813;28;20208;-74
2023/03/28 09:21:22;;;;;;;5.23;2.10;;;;;;;;;;5096581;28;20216;-74
2023/03/28 09:24:08;;;;;;;2.67;1.73;;;;;;;;;;5103962;27;20687;-74
2023/03/28 09:26:36;;;;;;;4.13;1.90;;;;;;;;;;5108410;27;20684;-73
2023/03/28 09:29:04;;;;;;;5.73;1.93;;;;;;;;;;5110189;27;20197;-73
2023/03/28 09:31:33;;;;;;;3.30;1.90;;;;;;;;;;5118940;27;20576;-73
2023/03/28 09:34:01;;;;;;;7.17;2.10;;;;;;;;;;5121356;27;20229;-73
2023/03/28 09:36:30;;;;;;;2.70;1.80;;;;;;;;;;5111037;28;20214;-73
2023/03/28 09:38:58;;;;;;;5.60;2.53;;;;;;;;;;5113051;27;20197;-74
2023/03/28 09:41:30;;;;;;;2.67;1.73;;;;;;;;;;5123464;27;20239;-72
2023/03/28 09:43:58;;;;;;;3.80;1.90;;;;;;;;;;5116627;27;20241;-73
2023/03/28 09:46:29;;;;;;;3.53;2.33;;;;;;;;;;5112130;28;20706;-75
2023/03/28 09:48:56;;;;;;;4.03;2.10;;;;;;;;;;5118921;27;20739;-74
2023/03/28 09:51:23;;;;;;;5.37;1.90;;;;;;;;;;5114835;27;20224;-73
2023/03/28 09:53:51;;;;;;;3.33;1.90;;;;;;;;;;5112029;28;20276;-73
2023/03/28 09:56:24;;;;;;;4.40;2.10;;;;;;;;;;5112874;28;20217;-73
2023/03/28 09:58:54;;;;;;;3.67;2.40;;;;;;;;;;5109223;28;20685;-74
2023/03/28 10:01:25;;;;;;;4.43;2.30;;;;;;;;;;5111717;28;20190;-74
2023/03/28 10:03:54;;;;;;;3.97;1.93;;;;;;;;;;5111582;28;20193;-74
2023/03/28 10:06:25;;;;;;;6.90;2.33;;;;;;;;;;5111493;28;20193;-74
2023/03/28 10:08:52;;;;;;;3.63;1.83;;;;;;;;;;5111476;28;20222;-72
2023/03/28 10:11:21;;;;;;;4.03;1.97;;;;;;;;;;5112002;28;20328;-74
2023/03/28 10:13:49;;;;;;;4.73;2.20;;;;;;;;;;5112181;27;20202;-75
2023/03/28 10:16:21;;;;;;;4.47;2.17;;;;;;;;;;5111366;28;20289;-73
2023/03/28 10:18:50;;;;;;;3.77;2.20;;;;;;;;;;5112731;28;20240;-74
2023/03/28 10:21:19;;;;;;;6.90;2.60;;;;;;;;;;5111641;28;20731;-73
2023/03/28 10:23:50;;;;;;;4.20;2.47;;;;;;;;;;5112375;28;20201;-73
2023/03/28 10:26:22;;;;;;;4.83;2.27;;;;;;;;;;5111749;28;20233;-73
2023/03/28 10:28:52;;;;;;;5.73;2.63;;;;;;;;;;5111336;28;20285;-73
2023/03/28 10:31:27;;;;;;;3.70;2.23;;;;;;;;;;5111191;28;20257;-72
2023/03/28 10:33:55;;;;;;;4.27;2.13;;;;;;;;;;5111646;28;20192;-73
2023/03/28 10:36:27;;;;;;;2.97;2.00;;;;;;;;;;5111600;28;20204;-74
2023/03/28 10:38:55;;;;;;;5.57;2.40;;;;;;;;;;5111766;28;20564;-73
2023/03/28 10:41:23;;;;;;;5.67;2.47;;;;;;;;;;5111761;28;20303;-73
2023/03/28 10:43:51;;;;;;;4.27;2.47;;;;;;;;;;5111245;28;20290;-74
2023/03/28 10:46:19;;;;;;;6.10;2.33;;;;;;;;;;5111241;28;20653;-74
2023/03/28 10:48:49;;;;;;;4.60;2.30;;;;;;;;;;5111559;28;20221;-73
2023/03/28 10:51:20;;;;;;;4.50;2.50;;;;;;;;;;5110048;28;20316;-74
2023/03/28 10:53:57;;;;;;;3.03;2.43;;;;;;;;;;5111352;28;20662;-74
2023/03/28 10:56:32;;;;;;;6.07;2.03;;;;;;;;;;5110791;28;20946;-75
2023/03/28 10:59:15;;;;;;;5.23;2.33;;;;;;;;;;5111383;28;20193;-75
2023/03/28 11:01:50;;;;;;;6.57;3.07;;;;;;;;;;5111204;28;20197;-75
2023/03/28 11:04:24;;;;;;;7.07;2.97;;;;;;;;;;5111090;28;20627;-74
2023/03/28 11:06:55;;;;;;;5.23;3.10;;;;;;;;;;5110601;28;20198;-74
2023/03/28 11:09:26;;;;;;;4.43;2.80;;;;;;;;;;5110746;28;20649;-73
2023/03/28 11:11:58;;;;;;;6.53;2.83;;;;;;;;;;5106092;28;20231;-74
2023/03/28 11:14:32;;;;;;;4.43;2.80;;;;;;;;;;5107943;28;20225;-74
2023/03/28 11:17:02;;;;;;;6.20;2.90;;;;;;;;;;5109951;28;20699;-73
2023/03/28 11:19:40;;;;;;;6.10;2.57;;;;;;;;;;5100435;28;20197;-73
2023/03/28 11:22:12;;;;;;;5.03;2.57;;;;;;;;;;5111545;28;20236;-74
2023/03/28 11:24:43;;;;;;;6.40;2.70;;;;;;;;;;5110737;28;20280;-73
2023/03/28 11:27:15;;;;;;;6.53;2.30;;;;;;;;;;5107822;28;20392;-74
2023/03/28 11:29:44;;;;;;;3.97;2.27;;;;;;;;;;5108353;28;20198;-74
2023/03/28 11:32:15;;;;;;;5.07;2.50;;;;;;;;;;5112358;28;20198;-75
2023/03/28 11:34:46;;;;;;;3.27;1.83;;;;;;;;;;5121650;28;20280;-74
2023/03/28 11:37:17;;;;;;;4.27;2.27;;;;;;;;;;5111722;28;20236;-74
2023/03/28 11:39:47;;;;;;;3.17;2.07;;;;;;;;;;5115104;28;20663;-73
2023/03/28 11:42:17;;;;;;;8.90;2.40;;;;;;;;;;5130192;28;20198;-74
2023/03/28 11:44:45;;;;;;;2.37;1.80;;;;;;;;;;5125247;28;20202;-74
2023/03/28 11:47:15;;;;;;;5.43;2.03;;;;;;;;;;5108465;28;20275;-74
2023/03/28 11:49:46;;;;;;;3.47;1.90;;;;;;;;;;5110609;28;20228;-74
2023/03/28 11:52:16;;;;;;;3.47;1.57;;;;;;;;;;5117738;27;20240;-74
2023/03/28 11:54:45;;;;;;;4.43;2.00;;;;;;;;;;5113315;27;21025;-74
2023/03/28 11:57:15;;;;;;;4.40;1.73;;;;;;;;;;5108137;27;20205;-74
2023/03/28 11:59:46;;;;;;;5.07;1.77;;;;;;;;;;5110979;28;20205;-73
2023/03/28 12:02:19;;;;;;;4.77;2.00;;;;;;;;;;5113856;28;20284;-73
2023/03/28 12:04:50;;;;;;;4.80;1.90;;;;;;;;;;5113804;27;20205;-72
2023/03/28 12:07:19;;;;;;;2.87;1.77;;;;;;;;;;5120341;27;20226;-74
2023/03/28 12:09:52;;;;;;;3.93;1.97;;;;;;;;;;5122060;27;20193;-74
2023/03/28 12:12:22;;;;;;;4.63;2.20;;;;;;;;;;5114717;27;20194;-74
2023/03/28 12:14:51;;;;;;;6.10;2.10;;;;;;;;;;5115598;27;20250;-74
2023/03/28 12:17:21;;;;;;;4.47;2.03;;;;;;;;;;5125917;27;20239;-73
2023/03/28 12:19:49;;;;;;;3.93;2.00;;;;;;;;;;5130886;27;20222;-74
2023/03/28 12:22:20;;;;;;;5.20;1.90;;;;;;;;;;5131219;27;20201;-74
2023/03/28 12:24:51;;;;;;;3.17;1.90;;;;;;;;;;5122113;27;20662;-74
2023/03/28 12:27:24;;;;;;;3.80;2.03;;;;;;;;;;5110894;27;20197;-73
2023/03/28 12:29:53;;;;;;;3.77;2.13;;;;;;;;;;5110847;27;20190;-74
2023/03/28 12:32:25;;;;;;;4.27;2.23;;;;;;;;;;5109127;28;20308;-74
2023/03/28 12:34:57;;;;;;;4.60;2.13;;;;;;;;;;5110547;28;20569;-74
2023/03/28 12:37:26;;;;;;;3.37;2.20;;;;;;;;;;5114704;27;20277;-75
2023/03/28 12:39:55;;;;;;;3.30;1.90;;;;;;;;;;5108368;28;20618;-74
2023/03/28 12:42:23;;;;;;;3.57;1.80;;;;;;;;;;5111950;28;20634;-74
2023/03/28 12:44:53;;;;;;;4.83;2.30;;;;;;;;;;5110837;27;20198;-74
2023/03/28 12:47:23;;;;;;;3.57;2.03;;;;;;;;;;5112499;27;20313;-73
2023/03/28 12:49:53;;;;;;;4.50;2.10;;;;;;;;;;5110479;27;20289;-73
2023/03/28 12:52:23;;;;;;;4.27;2.23;;;;;;;;;;5115774;27;20728;-73
2023/03/28 12:54:55;;;;;;;5.10;2.23;;;;;;;;;;5111168;27;20301;-73
2023/03/28 12:57:39;;;;;;;4.17;2.20;;;;;;;;;;5110554;27;20276;-74
2023/03/28 13:00:15;;;;;;;4.53;2.37;;;;;;;;;;5111674;27;20198;-73
2023/03/28 13:02:45;;;;;;;3.33;2.07;;;;;;;;;;5108332;28;20193;-73
2023/03/28 13:05:15;;;;;;;3.47;2.17;;;;;;;;;;5121513;27;20324;-73
2023/03/28 13:07:51;;;;;;;4.70;2.13;;;;;;;;;;5112677;27;20627;-73
2023/03/28 13:10:22;;;;;;;3.57;2.23;;;;;;;;;;5117889;27;20189;-73
2023/03/28 13:12:56;;;;;;;4.40;2.23;;;;;;;;;;5111981;27;20685;-73
2023/03/28 13:15:27;;;;;;;5.37;1.83;;;;;;;;;;5111608;28;20273;-73
2023/03/28 13:18:13;;;;;;;4.67;2.30;;;;;;;;;;5109291;28;20646;-73
2023/03/28 13:20:45;;;;;;;4.43;2.30;;;;;;;;;;5110947;27;20225;-73
2023/03/28 13:23:16;;;;;;;3.10;2.30;;;;;;;;;;5111575;28;20190;-73
2023/03/28 13:25:45;;;;;;;3.67;1.97;;;;;;;;;;5112845;27;20194;-74
2023/03/28 13:28:30;;;;;;;4.77;2.23;;;;;;;;;;5112518;27;20231;-73
2023/03/28 13:31:21;;;;;;;3.53;1.80;;;;;;;;;;5109086;28;20662;-73
2023/03/28 13:33:49;;;;;;;3.40;2.00;;;;;;;;;;5087278;28;20308;-73
2023/03/28 13:36:24;;;;;;;4.10;1.93;;;;;;;;;;5114085;27;20217;-74
2023/03/28 13:38:56;;;;;;;3.07;1.73;;;;;;;;;;5113699;27;20580;-74
2023/03/28 13:41:30;;;;;;;4.30;1.70;;;;;;;;;;5108809;28;20681;-74
2023/03/28 13:43:59;;;;;;;3.83;2.03;;;;;;;;;;5107448;28;20193;-75
2023/03/28 13:46:29;;;;;;;3.63;2.00;;;;;;;;;;5125409;27;20233;-74
2023/03/28 13:49:01;;;;;;;3.13;1.93;;;;;;;;;;5103417;28;20206;-74
2023/03/28 13:51:31;;;;;;;3.27;1.87;;;;;;;;;;5094522;28;20257;-75
2023/03/28 13:53:59;;;;;;;5.67;2.40;;;;;;;;;;5098217;28;20226;-75
2023/03/28 13:56:29;;;;;;;3.40;2.20;;;;;;;;;;5111008;27;20304;-74
2023/03/28 13:58:59;;;;;;;4.67;1.90;;;;;;;;;;5107208;27;20290;-74
2023/03/28 14:01:27;;;;;;;3.60;1.90;;;;;;;;;;5109193;28;20206;-74
2023/03/28 14:03:55;;;;;;;6.07;2.07;;;;;;;;;;5108127;28;20229;-75
2023/03/28 14:06:24;;;;;;;5.13;1.87;;;;;;;;;;5109473;27;20202;-75
2023/03/28 14:08:52;;;;;;;4.50;1.90;;;;;;;;;;5110165;28;20266;-75
2023/03/28 14:11:22;;;;;;;3.13;1.73;;;;;;;;;;5109183;28;20308;-74
2023/03/28 14:13:51;;;;;;;4.17;2.00;;;;;;;;;;5106920;28;20674;-73
2023/03/28 14:16:20;;;;;;;4.00;1.87;;;;;;;;;;5111150;28;20194;-75
2023/03/28 14:18:48;;;;;;;3.30;2.03;;;;;;;;;;5109383;28;20208;-74
2023/03/28 14:21:15;;;;;;;2.97;1.80;;;;;;;;;;5112172;28;20215;-74
2023/03/28 14:23:48;;;;;;;4.40;1.70;;;;;;;;;;5111279;28;20190;-74
2023/03/28 14:26:17;;;;;;;4.03;1.90;;;;;;;;;;5111214;28;20291;-74
2023/03/28 14:28:46;;;;;;;3.93;1.80;;;;;;;;;;5111063;27;20250;-75
2023/03/28 14:31:14;;;;;;;3.00;1.93;;;;;;;;;;5111359;28;20300;-74
2023/03/28 14:33:45;;;;;;;3.90;1.80;;;;;;;;;;5110341;28;20225;-75
2023/03/28 14:36:12;;;;;;;3.50;1.73;;;;;;;;;;5115391;27;20198;-75
2023/03/28 14:38:39;;;;;;;4.37;1.53;;;;;;;;;;5111459;28;20190;-75
2023/03/28 14:41:14;;;;;;;4.67;1.73;;;;;;;;;;5121111;27;20219;-75
2023/03/28 14:43:41;;;;;;;2.97;1.60;;;;;;;;;;5126813;27;20283;-75
2023/03/28 14:46:10;;;;;;;3.83;2.03;;;;;;;;;;5118186;27;20289;-74
2023/03/28 14:48:38;;;;;;;4.80;1.83;;;;;;;;;;5115269;28;20216;-74
2023/03/28 14:51:06;;;;;;;4.80;2.13;;;;;;;;;;5115127;28;20237;-74
2023/03/28 14:53:36;;;;;;;4.57;2.00;;;;;;;;;;5114462;28;20209;-74
2023/03/28 14:56:07;;;;;;;3.17;1.90;;;;;;;;;;5114647;28;20208;-74
2023/03/28 14:58:36;;;;;;;5.03;2.80;;;;;;;;;;5111990;28;20205;-75